createdAt,value
2018-04-23T00:00:39.702Z,22.95
2018-04-23T00:01:39.690Z,22.95
2018-04-23T00:02:39.676Z,22.94
2018-04-23T00:03:39.678Z,22.95
2018-04-23T00:04:39.653Z,22.92
2018-04-23T00:05:39.640Z,23.00
2018-04-23T00:06:39.635Z,22.90
2018-04-23T00:07:39.613Z,22.91
2018-04-23T00:08:39.602Z,22.98
2018-04-23T00:09:39.599Z,22.97
2018-04-23T00:10:39.577Z,22.97
2018-04-23T00:11:39.564Z,22.97
2018-04-23T00:12:39.552Z,22.83
2018-04-23T00:13:39.540Z,22.97
2018-04-23T00:14:39.558Z,23.00
2018-04-23T00:15:39.515Z,22.83
2018-04-23T00:16:39.502Z,23.01
2018-04-23T00:17:39.489Z,23.00
2018-04-23T00:18:39.477Z,22.95
2018-04-23T00:19:39.464Z,22.88
2018-04-23T00:20:39.462Z,22.90
2018-04-23T00:21:39.439Z,22.92
2018-04-23T00:22:39.427Z,22.88
2018-04-23T00:23:39.412Z,23.01
2018-04-23T00:24:39.401Z,22.90
2018-04-23T00:25:39.403Z,22.86
2018-04-23T00:26:39.376Z,22.92
2018-04-23T00:27:39.364Z,22.80
2018-04-23T00:28:39.356Z,22.90
2018-04-23T00:29:39.337Z,22.92
2018-04-23T00:30:39.324Z,22.97
2018-04-23T00:31:39.323Z,22.86
2018-04-23T00:32:39.301Z,22.82
2018-04-23T00:33:39.286Z,22.94
2018-04-23T00:34:39.275Z,22.91
2018-04-23T00:35:39.261Z,22.95
2018-04-23T00:36:39.265Z,22.85
2018-04-23T00:37:39.237Z,23.00
2018-04-23T00:38:39.223Z,22.82
2018-04-23T00:39:39.212Z,22.88
2018-04-23T00:40:39.200Z,22.94
2018-04-23T00:41:39.188Z,22.86
2018-04-23T00:42:39.187Z,22.83
2018-04-23T00:43:39.161Z,22.83
2018-04-23T00:44:39.148Z,22.90
2018-04-23T00:45:39.136Z,22.94
2018-04-23T00:46:39.124Z,22.95
2018-04-23T00:47:39.127Z,22.98
2018-04-23T00:48:39.099Z,22.85
2018-04-23T00:49:39.086Z,22.82
2018-04-23T00:50:39.072Z,22.91
2018-04-23T00:51:39.063Z,22.94
2018-04-23T00:52:39.048Z,22.83
2018-04-23T00:53:39.047Z,22.92
2018-04-23T00:54:39.023Z,22.85
2018-04-23T00:55:39.011Z,22.90
2018-04-23T00:56:39.002Z,22.82
2018-04-23T00:57:38.985Z,22.85
2018-04-23T00:58:38.986Z,22.85
2018-04-23T00:59:38.960Z,22.85
2018-04-23T01:00:38.946Z,22.90
2018-04-23T01:01:38.934Z,22.91
2018-04-23T01:02:38.923Z,22.82
2018-04-23T01:03:38.909Z,22.88
2018-04-23T01:04:38.906Z,22.97
2018-04-23T01:05:38.884Z,22.85
2018-04-23T01:06:38.871Z,22.76
2018-04-23T01:07:38.859Z,22.90
2018-04-23T01:08:38.846Z,22.86
2018-04-23T01:09:38.856Z,22.83
2018-04-23T01:10:38.820Z,22.85
2018-04-23T01:11:38.808Z,22.90
2018-04-23T01:12:38.796Z,22.90
2018-04-23T01:13:38.783Z,22.91
2018-04-23T01:14:38.769Z,22.83
2018-04-23T01:15:38.768Z,22.91
2018-04-23T01:16:38.745Z,22.88
2018-04-23T01:17:38.734Z,22.77
2018-04-23T01:18:38.719Z,22.91
2018-04-23T01:19:38.707Z,22.79
2018-04-23T01:20:38.708Z,22.83
2018-04-23T01:21:38.683Z,22.85
2018-04-23T01:22:38.669Z,22.86
2018-04-23T01:23:38.657Z,22.86
2018-04-23T01:24:38.644Z,22.86
2018-04-23T01:25:38.633Z,22.88
2018-04-23T01:26:38.628Z,22.90
2018-04-23T01:27:38.606Z,22.88
2018-04-23T01:28:38.592Z,22.86
2018-04-23T01:29:38.582Z,22.86
2018-04-23T01:30:38.568Z,22.79
2018-04-23T01:31:38.574Z,22.91
2018-04-23T01:32:38.544Z,22.88
2018-04-23T01:33:38.531Z,22.88
2018-04-23T01:34:38.518Z,22.83
2018-04-23T01:35:38.505Z,22.86
2018-04-23T01:36:38.493Z,22.83
2018-04-23T01:37:38.494Z,22.82
2018-04-23T01:38:38.467Z,22.86
2018-04-23T01:39:38.455Z,22.82
2018-04-23T01:40:38.443Z,22.83
2018-04-23T01:41:38.430Z,22.82
2018-04-23T01:42:38.418Z,22.79
2018-04-23T01:43:38.415Z,22.90
2018-04-23T01:44:38.391Z,22.80
2018-04-23T01:45:38.379Z,22.82
2018-04-23T01:46:38.372Z,22.82
2018-04-23T01:47:38.353Z,22.85
2018-04-23T01:48:38.352Z,22.82
2018-04-23T01:49:38.328Z,22.85
2018-04-23T01:50:38.315Z,22.82
2018-04-23T01:51:38.304Z,22.79
2018-04-23T01:52:38.291Z,22.83
2018-04-23T01:53:38.293Z,22.83
2018-04-23T01:54:38.265Z,22.88
2018-04-23T01:55:38.251Z,22.83
2018-04-23T01:56:38.240Z,22.82
2018-04-23T01:57:38.228Z,22.79
2018-04-23T01:58:38.216Z,22.85
2018-04-23T01:59:38.217Z,22.82
2018-04-23T02:00:38.190Z,22.80
2018-04-23T02:01:38.179Z,22.82
2018-04-23T02:02:38.163Z,22.82
2018-04-23T02:03:38.152Z,22.80
2018-04-23T02:04:38.138Z,22.80
2018-04-23T02:05:38.138Z,22.83
2018-04-23T02:06:38.112Z,22.80
2018-04-23T02:07:38.102Z,22.83
2018-04-23T02:08:38.090Z,22.80
2018-04-23T02:09:38.079Z,22.80
2018-04-23T02:10:38.076Z,22.82
2018-04-23T02:11:38.054Z,22.79
2018-04-23T02:12:38.039Z,22.80
2018-04-23T02:13:38.026Z,22.80
2018-04-23T02:14:38.013Z,22.80
2018-04-23T02:15:38.009Z,22.86
2018-04-23T02:16:37.987Z,22.80
2018-04-23T02:17:37.974Z,22.85
2018-04-23T02:18:37.961Z,22.82
2018-04-23T02:19:37.950Z,22.83
2018-04-23T02:20:37.949Z,22.85
2018-04-23T02:21:37.924Z,22.83
2018-04-23T02:22:37.914Z,22.88
2018-04-23T02:23:37.941Z,22.90
2018-04-23T02:24:37.886Z,22.82
2018-04-23T02:25:37.874Z,22.94
2018-04-23T02:26:37.875Z,22.88
2018-04-23T02:27:37.848Z,22.79
2018-04-23T02:28:37.837Z,22.80
2018-04-23T02:29:37.824Z,22.82
2018-04-23T02:30:37.814Z,22.80
2018-04-23T02:31:37.798Z,22.80
2018-04-23T02:32:37.794Z,22.85
2018-04-23T02:33:37.774Z,22.85
2018-04-23T02:34:37.760Z,22.80
2018-04-23T02:35:37.747Z,22.82
2018-04-23T02:36:37.737Z,22.85
2018-04-23T02:37:37.734Z,22.85
2018-04-23T02:38:37.707Z,22.83
2018-04-23T02:39:37.697Z,22.80
2018-04-23T02:40:37.685Z,22.76
2018-04-23T02:41:37.672Z,22.80
2018-04-23T02:42:37.672Z,22.86
2018-04-23T02:43:37.647Z,22.82
2018-04-23T02:44:37.636Z,22.77
2018-04-23T02:45:37.622Z,22.85
2018-04-23T02:46:37.607Z,22.86
2018-04-23T02:47:37.596Z,22.83
2018-04-23T02:48:37.597Z,22.80
2018-04-23T02:49:37.571Z,22.83
2018-04-23T02:50:37.557Z,22.85
2018-04-23T02:51:37.544Z,22.85
2018-04-23T02:52:37.532Z,22.83
2018-04-23T02:53:37.520Z,22.77
2018-04-23T02:54:37.517Z,22.85
2018-04-23T02:55:37.495Z,22.80
2018-04-23T02:56:37.483Z,22.82
2018-04-23T02:57:37.469Z,22.77
2018-04-23T02:58:37.457Z,22.83
2018-04-23T02:59:37.454Z,22.80
2018-04-23T03:00:37.431Z,22.85
2018-04-23T03:01:37.419Z,22.75
2018-04-23T03:02:37.472Z,22.82
2018-04-23T03:03:37.394Z,22.82
2018-04-23T03:04:37.394Z,22.83
2018-04-23T03:05:37.367Z,22.76
2018-04-23T03:06:37.355Z,22.79
2018-04-23T03:07:37.343Z,22.83
2018-04-23T03:08:37.331Z,22.77
2018-04-23T03:09:37.317Z,22.75
2018-04-23T03:10:37.346Z,22.86
2018-04-23T03:11:37.294Z,22.79
2018-04-23T03:12:37.279Z,22.79
2018-04-23T03:13:37.267Z,22.76
2018-04-23T03:14:37.252Z,22.77
2018-04-23T03:15:37.240Z,22.79
2018-04-23T03:16:37.239Z,22.77
2018-04-23T03:17:37.216Z,22.76
2018-04-23T03:18:37.202Z,22.75
2018-04-23T03:19:37.194Z,22.80
2018-04-23T03:20:37.177Z,22.79
2018-04-23T03:21:37.601Z,22.72
2018-04-23T03:22:37.153Z,22.77
2018-04-23T03:23:37.139Z,22.80
2018-04-23T03:24:37.127Z,22.82
2018-04-23T03:25:37.121Z,22.75
2018-04-23T03:26:37.102Z,22.83
2018-04-23T03:27:37.104Z,22.83
2018-04-23T03:28:37.076Z,22.83
2018-04-23T03:29:37.064Z,22.75
2018-04-23T03:30:37.050Z,22.79
2018-04-23T03:31:37.039Z,22.79
2018-04-23T03:32:37.026Z,22.85
2018-04-23T03:33:37.024Z,22.76
2018-04-23T03:34:36.999Z,22.75
2018-04-23T03:35:36.987Z,22.83
2018-04-23T03:36:36.975Z,22.77
2018-04-23T03:37:36.962Z,22.77
2018-04-23T03:38:36.963Z,22.77
2018-04-23T03:39:36.943Z,22.79
2018-04-23T03:40:36.978Z,22.79
2018-04-23T03:41:36.912Z,22.73
2018-04-23T03:42:36.899Z,22.83
2018-04-23T03:43:36.889Z,22.77
2018-04-23T03:44:36.883Z,22.77
2018-04-23T03:45:36.865Z,22.79
2018-04-23T03:46:36.847Z,22.79
2018-04-23T03:47:36.834Z,22.76
2018-04-23T03:48:36.825Z,22.82
2018-04-23T03:49:36.842Z,22.76
2018-04-23T03:50:36.852Z,22.75
2018-04-23T03:51:36.785Z,22.75
2018-04-23T03:52:36.804Z,22.79
2018-04-23T03:53:36.759Z,22.79
2018-04-23T03:54:36.746Z,22.83
2018-04-23T03:55:36.746Z,22.75
2018-04-23T03:56:36.724Z,22.73
2018-04-23T03:57:36.777Z,22.79
2018-04-23T03:58:36.693Z,22.75
2018-04-23T03:59:36.683Z,22.70
2018-04-23T04:00:36.688Z,22.77
2018-04-23T04:01:36.659Z,22.75
2018-04-23T04:02:36.645Z,22.79
2018-04-23T04:03:36.631Z,22.75
2018-04-23T04:04:36.620Z,22.76
2018-04-23T04:05:36.608Z,22.72
2018-04-23T04:06:36.609Z,22.72
2018-04-23T04:07:36.581Z,22.79
2018-04-23T04:08:36.569Z,22.73
2018-04-23T04:09:36.556Z,22.75
2018-04-23T04:10:36.543Z,22.79
2018-04-23T04:11:36.543Z,22.80
2018-04-23T04:12:36.520Z,22.79
2018-04-23T04:13:36.505Z,22.86
2018-04-23T04:14:36.493Z,22.82
2018-04-23T04:15:36.480Z,22.91
2018-04-23T04:16:36.482Z,22.83
2018-04-23T04:17:36.455Z,22.79
2018-04-23T04:18:36.442Z,22.82
2018-04-23T04:19:36.436Z,22.80
2018-04-23T04:20:36.419Z,22.91
2018-04-23T04:21:36.409Z,22.82
2018-04-23T04:22:36.401Z,22.76
2018-04-23T04:23:36.384Z,22.85
2018-04-23T04:24:36.366Z,22.86
2018-04-23T04:25:36.354Z,22.83
2018-04-23T04:26:36.340Z,22.85
2018-04-23T04:27:36.343Z,22.82
2018-04-23T04:28:36.316Z,22.82
2018-04-23T04:29:36.303Z,22.82
2018-04-23T04:30:36.288Z,22.86
2018-04-23T04:31:36.277Z,22.83
2018-04-23T04:32:36.265Z,22.88
2018-04-23T04:33:36.264Z,22.83
2018-04-23T04:34:36.238Z,22.77
2018-04-23T04:35:36.285Z,22.85
2018-04-23T04:36:36.211Z,22.80
2018-04-23T04:37:36.201Z,22.85
2018-04-23T04:38:36.204Z,22.83
2018-04-23T04:39:36.175Z,22.85
2018-04-23T04:40:36.163Z,22.77
2018-04-23T04:41:36.151Z,22.75
2018-04-23T04:42:36.139Z,22.77
2018-04-23T04:43:36.127Z,22.79
2018-04-23T04:44:36.125Z,22.85
2018-04-23T04:45:36.100Z,22.79
2018-04-23T04:46:36.085Z,22.76
2018-04-23T04:47:36.075Z,22.77
2018-04-23T04:48:36.063Z,22.73
2018-04-23T04:49:36.082Z,22.79
2018-04-23T04:50:36.035Z,22.72
2018-04-23T04:51:36.029Z,22.79
2018-04-23T04:52:36.015Z,22.77
2018-04-23T04:53:35.999Z,22.75
2018-04-23T04:54:35.986Z,22.83
2018-04-23T04:55:35.983Z,22.72
2018-04-23T04:56:35.960Z,22.75
2018-04-23T04:57:35.947Z,22.79
2018-04-23T04:58:35.936Z,22.76
2018-04-23T04:59:35.922Z,22.73
2018-04-23T05:00:35.924Z,22.76
2018-04-23T05:01:35.897Z,22.79
2018-04-23T05:02:35.882Z,22.75
2018-04-23T05:03:35.870Z,22.77
2018-04-23T05:04:35.858Z,22.76
2018-04-23T05:05:35.846Z,22.77
2018-04-23T05:06:35.843Z,22.73
2018-04-23T05:07:35.821Z,22.68
2018-04-23T05:08:35.807Z,22.76
2018-04-23T05:09:35.794Z,22.73
2018-04-23T05:10:35.781Z,22.76
2018-04-23T05:11:35.791Z,22.79
2018-04-23T05:12:35.756Z,22.73
2018-04-23T05:13:35.744Z,22.76
2018-04-23T05:14:35.731Z,22.79
2018-04-23T05:15:35.717Z,22.77
2018-04-23T05:16:35.705Z,22.76
2018-04-23T05:17:35.707Z,22.82
2018-04-23T05:18:35.679Z,22.79
2018-04-23T05:19:35.668Z,22.79
2018-04-23T05:20:35.654Z,22.76
2018-04-23T05:21:35.643Z,22.77
2018-04-23T05:22:35.628Z,22.76
2018-04-23T05:23:35.696Z,22.77
2018-04-23T05:24:35.604Z,22.86
2018-04-23T05:25:35.591Z,22.82
2018-04-23T05:26:35.577Z,22.82
2018-04-23T05:27:35.565Z,22.80
2018-04-23T05:28:35.585Z,22.86
2018-04-23T05:29:35.541Z,22.85
2018-04-23T05:30:35.526Z,22.83
2018-04-23T05:31:35.515Z,22.79
2018-04-23T05:32:35.504Z,22.85
2018-04-23T05:33:35.490Z,22.83
2018-04-23T05:34:35.493Z,22.83
2018-04-23T05:35:35.464Z,22.83
2018-04-23T05:36:35.451Z,22.83
2018-04-23T05:37:35.465Z,22.82
2018-04-23T05:38:35.425Z,22.83
2018-04-23T05:39:35.413Z,22.86
2018-04-23T05:40:35.410Z,22.91
2018-04-23T05:41:35.388Z,22.97
2018-04-23T05:42:35.376Z,22.98
2018-04-23T05:43:35.362Z,23.02
2018-04-23T05:44:35.351Z,23.02
2018-04-23T05:45:35.353Z,23.00
2018-04-23T05:46:35.323Z,23.01
2018-04-23T05:47:35.315Z,23.09
2018-04-23T05:48:35.298Z,23.07
2018-04-23T05:49:35.286Z,23.02
2018-04-23T05:50:35.289Z,23.05
2018-04-23T05:51:35.262Z,23.09
2018-04-23T05:52:35.248Z,23.09
2018-04-23T05:53:35.236Z,23.00
2018-04-23T05:54:35.225Z,23.01
2018-04-23T05:55:35.207Z,23.05
2018-04-23T05:56:35.213Z,22.98
2018-04-23T05:57:35.185Z,23.01
2018-04-23T05:58:35.171Z,23.02
2018-04-23T05:59:35.158Z,23.09
2018-04-23T06:00:35.167Z,23.04
2018-04-23T06:01:35.134Z,23.04
2018-04-23T06:02:35.130Z,23.02
2018-04-23T06:03:35.108Z,23.13
2018-04-23T06:04:35.096Z,23.02
2018-04-23T06:05:35.087Z,23.10
2018-04-23T06:06:35.079Z,23.00
2018-04-23T06:07:35.070Z,23.10
2018-04-23T06:08:35.057Z,23.07
2018-04-23T06:09:35.043Z,23.07
2018-04-23T06:10:35.022Z,23.09
2018-04-23T06:11:35.008Z,23.07
2018-04-23T06:12:35.011Z,23.07
2018-04-23T06:13:34.983Z,23.07
2018-04-23T06:14:34.972Z,23.10
2018-04-23T06:15:34.956Z,23.02
2018-04-23T06:16:34.942Z,23.12
2018-04-23T06:17:34.929Z,23.09
2018-04-23T06:18:34.931Z,23.15
2018-04-23T06:19:34.908Z,23.12
2018-04-23T06:20:34.897Z,23.10
2018-04-23T06:21:34.884Z,23.15
2018-04-23T06:22:34.870Z,23.20
2018-04-23T06:23:34.858Z,23.20
2018-04-23T06:24:34.856Z,23.20
2018-04-23T06:25:34.833Z,23.22
2018-04-23T06:26:34.819Z,23.28
2018-04-23T06:27:34.813Z,23.25
2018-04-23T06:28:34.798Z,23.25
2018-04-23T06:29:34.796Z,23.25
2018-04-23T06:30:34.769Z,23.28
2018-04-23T06:31:34.758Z,23.31
2018-04-23T06:32:34.745Z,23.25
2018-04-23T06:33:34.730Z,23.31
2018-04-23T06:34:34.736Z,23.36
2018-04-23T06:35:34.707Z,23.33
2018-04-23T06:36:34.701Z,23.31
2018-04-23T06:37:34.683Z,23.35
2018-04-23T06:38:34.671Z,23.38
2018-04-23T06:39:34.658Z,23.31
2018-04-23T06:40:34.660Z,23.32
2018-04-23T06:41:34.633Z,23.28
2018-04-23T06:42:34.620Z,23.22
2018-04-23T06:43:34.610Z,23.20
2018-04-23T06:44:34.595Z,23.25
2018-04-23T06:45:34.585Z,23.19
2018-04-23T06:46:34.581Z,23.25
2018-04-23T06:47:34.559Z,23.32
2018-04-23T06:48:34.546Z,23.32
2018-04-23T06:49:34.536Z,23.27
2018-04-23T06:50:34.524Z,23.25
2018-04-23T06:51:34.520Z,23.33
2018-04-23T06:52:34.504Z,23.35
2018-04-23T06:53:34.486Z,23.35
2018-04-23T06:54:34.474Z,23.35
2018-04-23T06:55:34.459Z,23.28
2018-04-23T06:56:34.460Z,23.32
2018-04-23T06:57:34.436Z,23.31
2018-04-23T06:58:34.424Z,23.32
2018-04-23T06:59:34.412Z,23.36
2018-04-23T07:00:34.400Z,23.28
2018-04-23T07:01:34.398Z,23.36
2018-04-23T07:02:34.376Z,23.35
2018-04-23T07:03:34.365Z,23.28
2018-04-23T07:04:34.351Z,23.28
2018-04-23T07:05:34.339Z,23.36
2018-04-23T07:06:34.342Z,23.35
2018-04-23T07:07:34.315Z,23.36
2018-04-23T07:08:34.304Z,23.36
2018-04-23T07:09:34.290Z,23.40
2018-04-23T07:10:34.277Z,23.33
2018-04-23T07:11:34.266Z,23.36
2018-04-23T07:12:34.270Z,23.33
2018-04-23T07:13:34.243Z,23.35
2018-04-23T07:14:34.226Z,23.36
2018-04-23T07:15:34.216Z,23.39
2018-04-23T07:16:34.258Z,23.39
2018-04-23T07:17:34.191Z,23.35
2018-04-23T07:18:34.188Z,23.35
2018-04-23T07:19:34.168Z,23.43
2018-04-23T07:20:34.154Z,23.35
2018-04-23T07:21:34.141Z,23.38
2018-04-23T07:22:34.127Z,23.33
2018-04-23T07:23:34.127Z,23.40
2018-04-23T07:24:34.104Z,23.27
2018-04-23T07:25:34.094Z,23.32
2018-04-23T07:26:34.079Z,23.27
2018-04-23T07:27:34.067Z,23.33
2018-04-23T07:28:34.074Z,23.31
2018-04-23T07:29:34.045Z,23.33
2018-04-23T07:30:34.030Z,23.28
2018-04-23T07:31:34.018Z,23.22
2018-04-23T07:32:34.005Z,23.28
2018-04-23T07:33:34.003Z,23.27
2018-04-23T07:34:33.980Z,23.22
2018-04-23T07:35:33.971Z,23.22
2018-04-23T07:36:33.959Z,23.22
2018-04-23T07:37:33.944Z,23.23
2018-04-23T07:38:34.209Z,23.25
2018-04-23T07:39:33.920Z,23.28
2018-04-23T07:40:33.908Z,23.22
2018-04-23T07:41:33.895Z,23.25
2018-04-23T07:42:33.882Z,23.25
2018-04-23T07:43:33.871Z,23.13
2018-04-23T07:44:33.890Z,23.17
2018-04-23T07:45:33.845Z,23.20
2018-04-23T07:46:33.835Z,23.15
2018-04-23T07:47:33.822Z,23.16
2018-04-23T07:48:33.809Z,23.10
2018-04-23T07:49:33.795Z,23.13
2018-04-23T07:50:33.792Z,23.19
2018-04-23T07:51:33.772Z,23.19
2018-04-23T07:52:33.765Z,23.13
2018-04-23T07:53:33.748Z,23.17
2018-04-23T07:54:33.734Z,23.13
2018-04-23T07:55:33.731Z,23.15
2018-04-23T07:56:33.710Z,23.13
2018-04-23T07:57:33.697Z,23.13
2018-04-23T07:58:33.683Z,23.12
2018-04-23T07:59:33.670Z,23.16
2018-04-23T08:00:33.668Z,23.13
2018-04-23T08:01:33.648Z,23.19
2018-04-23T08:02:33.634Z,23.16
2018-04-23T08:03:33.621Z,23.13
2018-04-23T08:04:33.610Z,23.10
2018-04-23T08:05:33.607Z,23.10
2018-04-23T08:06:33.626Z,23.13
2018-04-23T08:07:33.570Z,23.17
2018-04-23T08:08:33.566Z,23.17
2018-04-23T08:09:33.546Z,23.13
2018-04-23T08:10:33.548Z,23.12
2018-04-23T08:11:33.520Z,23.16
2018-04-23T08:12:33.509Z,23.16
2018-04-23T08:13:33.497Z,23.15
2018-04-23T08:14:33.487Z,23.13
2018-04-23T08:15:33.470Z,23.20
2018-04-23T08:16:33.473Z,23.16
2018-04-23T08:17:33.447Z,23.20
2018-04-23T08:18:33.433Z,23.17
2018-04-23T08:19:33.421Z,23.15
2018-04-23T08:20:33.409Z,23.10
2018-04-23T08:21:33.397Z,23.15
2018-04-23T08:22:33.394Z,23.16
2018-04-23T08:23:33.372Z,23.13
2018-04-23T08:24:33.359Z,23.20
2018-04-23T08:25:33.348Z,23.15
2018-04-23T08:26:33.333Z,23.17
2018-04-23T08:27:33.331Z,23.19
2018-04-23T08:28:33.310Z,23.15
2018-04-23T08:29:33.296Z,23.20
2018-04-23T08:30:33.286Z,23.15
2018-04-23T08:31:33.270Z,23.09
2018-04-23T08:32:33.270Z,23.15
2018-04-23T08:33:33.247Z,23.17
2018-04-23T08:34:33.235Z,23.17
2018-04-23T08:35:33.222Z,23.17
2018-04-23T08:36:33.209Z,23.16
2018-04-23T08:37:33.245Z,23.17
2018-04-23T08:38:33.184Z,23.17
2018-04-23T08:39:33.223Z,23.15
2018-04-23T08:40:33.163Z,23.13
2018-04-23T08:41:33.149Z,23.16
2018-04-23T08:42:33.135Z,23.16
2018-04-23T08:43:33.175Z,23.19
2018-04-23T08:44:33.113Z,23.13
2018-04-23T08:45:33.099Z,23.15
2018-04-23T08:46:33.088Z,23.16
2018-04-23T08:47:33.080Z,23.10
2018-04-23T08:48:33.077Z,23.15
2018-04-23T08:49:33.048Z,23.13
2018-04-23T08:50:33.038Z,23.19
2018-04-23T08:51:33.024Z,23.10
2018-04-23T08:52:33.012Z,23.07
2018-04-23T08:53:33.000Z,23.13
2018-04-23T08:54:32.996Z,23.12
2018-04-23T08:55:32.979Z,23.10
2018-04-23T08:56:32.961Z,23.07
2018-04-23T08:57:32.951Z,23.07
2018-04-23T08:58:32.937Z,23.09
2018-04-23T08:59:32.934Z,23.15
2018-04-23T09:00:32.913Z,23.12
2018-04-23T09:01:32.965Z,23.05
2018-04-23T09:02:32.887Z,23.17
2018-04-23T09:03:32.877Z,23.16
2018-04-23T09:04:32.874Z,23.13
2018-04-23T09:05:32.851Z,23.12
2018-04-23T09:06:32.839Z,23.17
2018-04-23T09:07:32.829Z,23.16
2018-04-23T09:08:32.816Z,23.17
2018-04-23T09:09:32.815Z,23.17
2018-04-23T09:10:32.788Z,23.12
2018-04-23T09:11:32.775Z,23.17
2018-04-23T09:12:32.764Z,23.12
2018-04-23T09:13:32.751Z,23.15
2018-04-23T09:14:32.742Z,23.17
2018-04-23T09:15:32.734Z,23.16
2018-04-23T09:16:32.716Z,23.16
2018-04-23T09:17:32.701Z,23.19
2018-04-23T09:18:32.687Z,23.20
2018-04-23T09:19:32.678Z,23.13
2018-04-23T09:20:32.678Z,23.19
2018-04-23T09:21:32.651Z,23.16
2018-04-23T09:22:32.636Z,23.19
2018-04-23T09:23:32.626Z,23.12
2018-04-23T09:24:32.615Z,23.12
2018-04-23T09:25:32.601Z,23.16
2018-04-23T09:26:32.597Z,23.12
2018-04-23T09:27:32.575Z,23.19
2018-04-23T09:28:32.563Z,23.12
2018-04-23T09:29:32.551Z,23.16
2018-04-23T09:30:32.538Z,23.15
2018-04-23T09:31:32.540Z,23.15
2018-04-23T09:32:32.512Z,23.13
2018-04-23T09:33:32.500Z,23.13
2018-04-23T09:34:32.490Z,23.12
2018-04-23T09:35:32.476Z,23.17
2018-04-23T09:36:32.473Z,23.09
2018-04-23T09:37:32.448Z,23.13
2018-04-23T09:38:32.439Z,23.12
2018-04-23T09:39:32.426Z,23.13
2018-04-23T09:40:32.414Z,23.19
2018-04-23T09:41:32.422Z,23.12
2018-04-23T09:42:32.387Z,23.13
2018-04-23T09:43:32.375Z,23.13
2018-04-23T09:44:32.385Z,23.16
2018-04-23T09:45:32.352Z,23.25
2018-04-23T09:46:32.338Z,23.25
2018-04-23T09:47:32.336Z,23.20
2018-04-23T09:48:32.312Z,23.25
2018-04-23T09:49:32.299Z,23.20
2018-04-23T09:50:32.290Z,23.22
2018-04-23T09:51:32.275Z,23.36
2018-04-23T09:52:32.279Z,23.32
2018-04-23T09:53:32.251Z,23.28
2018-04-23T09:54:32.244Z,23.27
2018-04-23T09:55:32.227Z,23.25
2018-04-23T09:56:32.214Z,23.23
2018-04-23T09:57:32.202Z,23.27
2018-04-23T09:58:32.199Z,23.23
2018-04-23T09:59:32.175Z,23.23
2018-04-23T10:00:32.164Z,23.19
2018-04-23T10:01:32.154Z,23.15
2018-04-23T10:02:32.138Z,23.17
2018-04-23T10:03:32.136Z,23.25
2018-04-23T10:04:32.114Z,23.19
2018-04-23T10:05:32.102Z,23.22
2018-04-23T10:06:32.089Z,23.20
2018-04-23T10:07:32.075Z,23.16
2018-04-23T10:08:32.078Z,23.12
2018-04-23T10:09:32.052Z,23.13
2018-04-23T10:10:32.039Z,23.16
2018-04-23T10:11:32.028Z,23.10
2018-04-23T10:12:32.017Z,23.13
2018-04-23T10:13:32.016Z,23.15
2018-04-23T10:14:31.994Z,23.13
2018-04-23T10:15:31.977Z,23.13
2018-04-23T10:16:31.965Z,23.15
2018-04-23T10:17:31.957Z,23.16
2018-04-23T10:18:31.938Z,23.16
2018-04-23T10:19:31.942Z,23.13
2018-04-23T10:20:31.918Z,23.22
2018-04-23T10:21:31.903Z,23.13
2018-04-23T10:22:31.890Z,23.19
2018-04-23T10:23:31.884Z,23.25
2018-04-23T10:24:31.866Z,23.23
2018-04-23T10:25:31.865Z,23.23
2018-04-23T10:26:31.838Z,23.20
2018-04-23T10:27:31.828Z,23.16
2018-04-23T10:28:31.815Z,23.27
2018-04-23T10:29:31.804Z,23.25
2018-04-23T10:30:31.800Z,23.23
2018-04-23T10:31:31.779Z,23.20
2018-04-23T10:32:31.766Z,23.27
2018-04-23T10:33:31.755Z,23.28
2018-04-23T10:34:31.741Z,23.32
2018-04-23T10:35:31.739Z,23.23
2018-04-23T10:36:31.717Z,23.22
2018-04-23T10:37:31.704Z,23.23
2018-04-23T10:38:31.693Z,23.35
2018-04-23T10:39:31.678Z,23.33
2018-04-23T10:40:31.681Z,23.28
2018-04-23T10:41:31.655Z,23.33
2018-04-23T10:42:31.641Z,23.33
2018-04-23T10:43:31.630Z,23.25
2018-04-23T10:44:31.617Z,23.23
2018-04-23T10:45:31.668Z,23.28
2018-04-23T10:46:31.606Z,23.33
2018-04-23T10:47:31.584Z,23.31
2018-04-23T10:48:31.566Z,23.33
2018-04-23T10:49:31.554Z,23.32
2018-04-23T10:50:31.543Z,23.32
2018-04-23T10:51:31.530Z,23.27
2018-04-23T10:52:31.527Z,23.35
2018-04-23T10:53:31.506Z,23.31
2018-04-23T10:54:31.497Z,23.38
2018-04-23T10:55:31.481Z,23.28
2018-04-23T10:56:31.469Z,23.33
2018-04-23T10:57:31.468Z,23.33
2018-04-23T10:58:31.443Z,23.38
2018-04-23T10:59:31.436Z,23.38
2018-04-23T11:00:31.421Z,23.33
2018-04-23T11:01:31.405Z,23.33
2018-04-23T11:02:31.404Z,23.33
2018-04-23T11:03:31.380Z,23.28
2018-04-23T11:04:31.370Z,23.33
2018-04-23T11:05:31.357Z,23.28
2018-04-23T11:06:31.344Z,23.31
2018-04-23T11:07:31.364Z,23.32
2018-04-23T11:08:31.320Z,23.39
2018-04-23T11:09:31.311Z,23.35
2018-04-23T11:10:31.295Z,23.40
2018-04-23T11:11:31.284Z,23.33
2018-04-23T11:12:31.271Z,23.31
2018-04-23T11:13:31.272Z,23.39
2018-04-23T11:14:31.248Z,23.40
2018-04-23T11:15:31.234Z,23.43
2018-04-23T11:16:31.221Z,23.42
2018-04-23T11:17:31.207Z,23.31
2018-04-23T11:18:31.195Z,23.36
2018-04-23T11:19:31.194Z,23.40
2018-04-23T11:20:31.169Z,23.33
2018-04-23T11:21:31.158Z,23.32
2018-04-23T11:22:31.145Z,23.32
2018-04-23T11:23:31.134Z,23.38
2018-04-23T11:24:31.131Z,23.42
2018-04-23T11:25:31.110Z,23.36
2018-04-23T11:26:31.099Z,23.31
2018-04-23T11:27:31.089Z,23.32
2018-04-23T11:28:31.072Z,23.28
2018-04-23T11:29:31.076Z,23.28
2018-04-23T11:30:31.052Z,23.31
2018-04-23T11:31:31.033Z,23.38
2018-04-23T11:32:31.026Z,23.28
2018-04-23T11:33:31.011Z,23.28
2018-04-23T11:34:31.003Z,23.36
2018-04-23T11:35:30.999Z,23.33
2018-04-23T11:36:30.975Z,23.33
2018-04-23T11:37:30.963Z,23.33
2018-04-23T11:38:30.958Z,23.31
2018-04-23T11:39:30.936Z,23.31
2018-04-23T11:40:31.186Z,23.42
2018-04-23T11:41:30.912Z,23.31
2018-04-23T11:42:30.897Z,23.36
2018-04-23T11:43:30.885Z,23.33
2018-04-23T11:44:30.880Z,23.28
2018-04-23T11:45:30.862Z,23.38
2018-04-23T11:46:30.860Z,23.31
2018-04-23T11:47:30.837Z,23.36
2018-04-23T11:48:30.828Z,23.36
2018-04-23T11:49:30.813Z,23.28
2018-04-23T11:50:30.799Z,23.31
2018-04-23T11:51:30.796Z,23.32
2018-04-23T11:52:30.776Z,23.36
2018-04-23T11:53:30.766Z,23.38
2018-04-23T11:54:30.750Z,23.32
2018-04-23T11:55:30.739Z,23.35
2018-04-23T11:56:30.736Z,23.38
2018-04-23T11:57:30.718Z,23.27
2018-04-23T11:58:30.700Z,23.28
2018-04-23T11:59:30.688Z,23.33
2018-04-23T12:00:30.678Z,23.28
2018-04-23T12:01:30.680Z,23.27
2018-04-23T12:02:30.661Z,23.33
2018-04-23T12:03:30.640Z,23.38
2018-04-23T12:04:30.654Z,23.28
2018-04-23T12:05:30.614Z,23.39
2018-04-23T12:06:30.603Z,23.39
2018-04-23T12:07:30.601Z,23.39
2018-04-23T12:08:30.585Z,23.35
2018-04-23T12:09:30.565Z,23.31
2018-04-23T12:10:30.553Z,23.43
2018-04-23T12:11:30.541Z,23.38
2018-04-23T12:12:30.543Z,23.39
2018-04-23T12:13:30.516Z,23.39
2018-04-23T12:14:30.501Z,23.35
2018-04-23T12:15:30.491Z,23.40
2018-04-23T12:16:30.480Z,23.39
2018-04-23T12:17:30.465Z,23.42
2018-04-23T12:18:30.464Z,23.32
2018-04-23T12:19:30.442Z,23.42
2018-04-23T12:20:30.429Z,23.42
2018-04-23T12:21:30.417Z,23.42
2018-04-23T12:22:30.410Z,23.32
2018-04-23T12:23:30.402Z,23.28
2018-04-23T12:24:30.382Z,23.32
2018-04-23T12:25:30.367Z,23.40
2018-04-23T12:26:30.355Z,23.36
2018-04-23T12:27:30.343Z,23.31
2018-04-23T12:28:30.592Z,23.36
2018-04-23T12:29:30.318Z,23.32
2018-04-23T12:30:30.305Z,23.31
2018-04-23T12:31:30.294Z,23.40
2018-04-23T12:32:30.281Z,23.25
2018-04-23T12:33:30.268Z,23.33
2018-04-23T12:34:30.266Z,23.39
2018-04-23T12:35:30.244Z,23.28
2018-04-23T12:36:30.232Z,23.33
2018-04-23T12:37:30.221Z,23.36
2018-04-23T12:38:30.208Z,23.36
2018-04-23T12:39:30.207Z,23.38
2018-04-23T12:40:30.186Z,23.33
2018-04-23T12:41:30.170Z,23.35
2018-04-23T12:42:30.158Z,23.36
2018-04-23T12:43:30.160Z,23.33
2018-04-23T12:44:30.141Z,23.33
2018-04-23T12:45:30.120Z,23.36
2018-04-23T12:46:30.111Z,23.31
2018-04-23T12:47:30.098Z,23.33
2018-04-23T12:48:30.082Z,23.27
2018-04-23T12:49:30.087Z,23.31
2018-04-23T12:50:30.059Z,23.38
2018-04-23T12:51:30.047Z,23.32
2018-04-23T12:52:30.037Z,23.36